Time;durP1;ratioP1;P1;durP2;ratioP2;P2;SDS_P1;SDS_P2;PMS_P1;PMS_P2;Temp;Humidity;BMP_temperature;BMP_pressure;BME280_temperature;BME280_humidity;BME280_pressure;Samples;Min_cycle;Max_cycle;Signal;HPM_P1;HPM_P2
2022/06/21 14:35:45;;;;;;;9.87;8.87;;;25.10;56.60;;;;;;6125799;23;20437;-80
2022/06/21 14:38:18;;;;;;;10.57;9.57;;;25.10;56.60;;;;;;6173659;23;20429;-80
2022/06/21 14:40:52;;;;;;;10.07;7.77;;;25.10;56.90;;;;;;6188129;23;20512;-80
2022/06/21 14:43:25;;;;;;;7.53;6.67;;;25.10;57.10;;;;;;6186699;23;20421;-80
2022/06/21 14:45:59;;;;;;;11.63;10.53;;;25.10;56.90;;;;;;6190363;23;20750;-77
2022/06/21 14:48:34;;;;;;;13.23;11.93;;;25.10;57.30;;;;;;6185692;23;20429;-78
2022/06/21 14:51:10;;;;;;;6.50;5.77;;;25.10;57.80;;;;;;6186324;23;20436;-77
2022/06/21 14:53:58;;;;;;;7.07;6.47;;;25.10;57.00;;;;;;6185993;23;20435;-77
2022/06/21 14:56:45;;;;;;;6.70;6.00;;;25.10;57.10;;;;;;6185126;23;20437;-79
2022/06/21 14:59:37;;;;;;;5.33;4.83;;;25.10;56.90;;;;;;6185614;23;20443;-82
2022/06/21 15:02:35;;;;;;;8.50;7.70;;;25.10;56.60;;;;;;6185119;23;20470;-84
2022/06/21 15:05:10;;;;;;;6.57;6.00;;;25.10;56.50;;;;;;6183547;23;20444;-83
2022/06/21 15:07:49;;;;;;;9.13;8.23;;;25.10;56.40;;;;;;6192002;23;20459;-83
2022/06/21 15:10:23;;;;;;;13.93;12.63;;;25.10;56.40;;;;;;6191136;23;20412;-83
2022/06/21 15:12:57;;;;;;;9.60;8.60;;;25.10;56.50;;;;;;6189607;23;20432;-83
2022/06/21 15:15:27;;;;;;;8.07;7.20;;;25.10;56.30;;;;;;6188645;23;20448;-82
2022/06/21 15:18:04;;;;;;;5.80;5.20;;;25.00;56.10;;;;;;6188676;23;20468;-80
2022/06/21 15:20:35;;;;;;;6.20;5.70;;;25.00;55.40;;;;;;6185088;23;20502;-78
2022/06/21 15:23:14;;;;;;;10.00;9.00;;;25.00;55.10;;;;;;6186528;23;20915;-79
2022/06/21 15:25:55;;;;;;;10.50;9.43;;;25.00;55.50;;;;;;6179056;23;20892;-79
2022/06/21 15:28:26;;;;;;;10.50;9.50;;;25.00;56.10;;;;;;6205196;23;20437;-78
2022/06/21 15:31:04;;;;;;;13.67;12.27;;;25.00;56.80;;;;;;6172049;23;20757;-79
2022/06/21 15:33:42;;;;;;;10.07;9.17;;;24.90;57.30;;;;;;6185198;23;20795;-84
2022/06/21 15:36:24;;;;;;;8.00;7.23;;;24.90;58.00;;;;;;6192932;23;20467;-84
2022/06/21 15:39:01;;;;;;;4.60;3.17;;;24.90;57.70;;;;;;6186553;23;20429;-83
2022/06/21 15:41:35;;;;;;;3.43;3.13;;;24.90;56.60;;;;;;6189117;23;20432;-83
2022/06/21 15:44:26;;;;;;;3.23;2.93;;;24.90;55.90;;;;;;6193206;23;20446;-83
2022/06/21 15:50:16;;;;;;;5.70;5.20;;;24.80;57.10;;;;;;6156260;23;20803;-84
2022/06/21 15:53:34;;;;;;;5.83;5.23;;;24.80;57.70;;;;;;6199090;23;20483;-83
2022/06/21 15:56:27;;;;;;;23.00;20.60;;;24.80;58.20;;;;;;6175576;23;20422;-83
2022/06/21 15:59:45;;;;;;;12.50;11.40;;;24.70;58.00;;;;;;6174090;23;20711;-79
2022/06/21 16:05:22;;;;;;;10.43;9.37;;;24.70;57.80;;;;;;6200422;23;20416;-84
2022/06/21 16:07:53;;;;;;;10.90;8.70;;;24.70;58.40;;;;;;6201210;23;20440;-84
2022/06/21 16:10:27;;;;;;;11.53;10.43;;;24.60;58.30;;;;;;6198701;23;20429;-79
2022/06/21 16:13:01;;;;;;;10.30;9.30;;;24.70;58.50;;;;;;6206786;23;20433;-79
2022/06/21 16:15:31;;;;;;;11.93;10.67;;;24.70;58.40;;;;;;6193646;23;20464;-78
2022/06/21 16:18:02;;;;;;;10.97;9.30;;;24.60;58.20;;;;;;6207502;23;20424;-78
2022/06/21 16:20:37;;;;;;;14.10;12.80;;;24.60;59.10;;;;;;6205175;23;20429;-84
2022/06/21 16:23:38;;;;;;;5.90;5.07;;;24.60;58.50;;;;;;6208530;23;20428;-84
2022/06/21 16:26:17;;;;;;;4.57;4.17;;;24.60;56.50;;;;;;6171833;23;20432;-79
2022/06/21 16:29:11;;;;;;;10.50;7.83;;;24.60;56.40;;;;;;6225396;23;20428;-79
